sensor_id;sensor_type;location;lat;lon;timestamp;P1;durP1;ratioP1;P2;durP2;ratioP2
53666;SDS011;39568;51.026;5.468;2023-05-29T00:00:21;9.88;;;5.60;;
53666;SDS011;39568;51.026;5.468;2023-05-29T00:02:48;13.45;;;6.28;;
53666;SDS011;39568;51.026;5.468;2023-05-29T00:05:17;16.40;;;7.45;;
53666;SDS011;39568;51.026;5.468;2023-05-29T00:07:44;14.20;;;6.97;;
53666;SDS011;39568;51.026;5.468;2023-05-29T00:10:11;13.95;;;6.13;;
53666;SDS011;39568;51.026;5.468;2023-05-29T00:12:38;16.05;;;7.15;;
53666;SDS011;39568;51.026;5.468;2023-05-29T00:15:05;8.10;;;6.05;;
53666;SDS011;39568;51.026;5.468;2023-05-29T00:17:33;13.48;;;6.57;;
53666;SDS011;39568;51.026;5.468;2023-05-29T00:20:00;12.27;;;7.15;;
53666;SDS011;39568;51.026;5.468;2023-05-29T00:22:31;15.98;;;6.15;;
53666;SDS011;39568;51.026;5.468;2023-05-29T00:24:57;10.95;;;7.18;;
53666;SDS011;39568;51.026;5.468;2023-05-29T00:27:24;11.13;;;6.13;;
53666;SDS011;39568;51.026;5.468;2023-05-29T00:29:51;22.35;;;6.82;;
53666;SDS011;39568;51.026;5.468;2023-05-29T00:32:17;12.45;;;7.10;;
53666;SDS011;39568;51.026;5.468;2023-05-29T00:34:44;13.77;;;6.10;;
53666;SDS011;39568;51.026;5.468;2023-05-29T00:37:11;14.57;;;7.45;;
53666;SDS011;39568;51.026;5.468;2023-05-29T00:39:39;8.55;;;7.18;;
53666;SDS011;39568;51.026;5.468;2023-05-29T00:42:05;12.68;;;7.47;;
53666;SDS011;39568;51.026;5.468;2023-05-29T00:44:32;12.27;;;7.28;;
53666;SDS011;39568;51.026;5.468;2023-05-29T00:46:59;20.15;;;8.00;;
53666;SDS011;39568;51.026;5.468;2023-05-29T00:49:26;17.73;;;7.55;;
53666;SDS011;39568;51.026;5.468;2023-05-29T00:51:53;25.55;;;9.23;;
53666;SDS011;39568;51.026;5.468;2023-05-29T00:54:21;12.38;;;7.95;;
53666;SDS011;39568;51.026;5.468;2023-05-29T00:56:51;29.45;;;8.77;;
53666;SDS011;39568;51.026;5.468;2023-05-29T00:59:18;16.83;;;8.75;;
53666;SDS011;39568;51.026;5.468;2023-05-29T01:01:47;22.05;;;8.68;;
53666;SDS011;39568;51.026;5.468;2023-05-29T01:04:15;17.88;;;9.40;;
53666;SDS011;39568;51.026;5.468;2023-05-29T01:06:42;15.20;;;8.45;;
53666;SDS011;39568;51.026;5.468;2023-05-29T01:09:16;18.65;;;7.78;;
53666;SDS011;39568;51.026;5.468;2023-05-29T01:11:45;16.58;;;9.05;;
53666;SDS011;39568;51.026;5.468;2023-05-29T01:14:22;11.45;;;8.60;;
53666;SDS011;39568;51.026;5.468;2023-05-29T01:16:55;12.88;;;8.95;;
53666;SDS011;39568;51.026;5.468;2023-05-29T01:19:40;16.38;;;9.52;;
53666;SDS011;39568;51.026;5.468;2023-05-29T01:22:19;16.15;;;8.85;;
53666;SDS011;39568;51.026;5.468;2023-05-29T01:25:03;17.98;;;9.98;;
53666;SDS011;39568;51.026;5.468;2023-05-29T01:27:40;22.05;;;10.82;;
53666;SDS011;39568;51.026;5.468;2023-05-29T01:30:10;22.20;;;10.25;;
53666;SDS011;39568;51.026;5.468;2023-05-29T01:32:38;27.77;;;9.77;;
53666;SDS011;39568;51.026;5.468;2023-05-29T01:35:06;19.80;;;10.63;;
53666;SDS011;39568;51.026;5.468;2023-05-29T01:37:34;20.10;;;10.35;;
53666;SDS011;39568;51.026;5.468;2023-05-29T01:40:06;15.93;;;11.43;;
53666;SDS011;39568;51.026;5.468;2023-05-29T01:42:34;22.13;;;10.45;;
53666;SDS011;39568;51.026;5.468;2023-05-29T01:45:06;23.75;;;10.73;;
53666;SDS011;39568;51.026;5.468;2023-05-29T01:47:37;22.27;;;12.45;;
53666;SDS011;39568;51.026;5.468;2023-05-29T01:50:05;21.50;;;12.38;;
53666;SDS011;39568;51.026;5.468;2023-05-29T01:52:33;22.73;;;12.68;;
53666;SDS011;39568;51.026;5.468;2023-05-29T01:55:00;24.20;;;11.40;;
53666;SDS011;39568;51.026;5.468;2023-05-29T01:57:27;24.67;;;10.95;;
53666;SDS011;39568;51.026;5.468;2023-05-29T01:59:57;27.77;;;10.23;;
53666;SDS011;39568;51.026;5.468;2023-05-29T02:02:26;19.58;;;11.25;;
53666;SDS011;39568;51.026;5.468;2023-05-29T02:04:57;26.65;;;10.57;;
53666;SDS011;39568;51.026;5.468;2023-05-29T02:07:24;27.20;;;9.95;;
53666;SDS011;39568;51.026;5.468;2023-05-29T02:09:54;19.60;;;10.48;;
53666;SDS011;39568;51.026;5.468;2023-05-29T02:12:22;24.88;;;9.27;;
53666;SDS011;39568;51.026;5.468;2023-05-29T02:14:49;19.33;;;9.20;;
53666;SDS011;39568;51.026;5.468;2023-05-29T02:17:17;22.30;;;9.02;;
53666;SDS011;39568;51.026;5.468;2023-05-29T02:19:46;25.65;;;9.15;;
53666;SDS011;39568;51.026;5.468;2023-05-29T02:22:14;21.38;;;8.43;;
53666;SDS011;39568;51.026;5.468;2023-05-29T02:24:41;16.13;;;8.27;;
53666;SDS011;39568;51.026;5.468;2023-05-29T02:27:07;21.58;;;8.45;;
53666;SDS011;39568;51.026;5.468;2023-05-29T02:29:34;28.05;;;7.53;;
53666;SDS011;39568;51.026;5.468;2023-05-29T02:32:01;17.38;;;6.55;;
53666;SDS011;39568;51.026;5.468;2023-05-29T02:34:27;22.40;;;7.57;;
53666;SDS011;39568;51.026;5.468;2023-05-29T02:36:56;17.13;;;7.22;;
53666;SDS011;39568;51.026;5.468;2023-05-29T02:39:22;20.67;;;7.05;;
53666;SDS011;39568;51.026;5.468;2023-05-29T02:41:50;22.50;;;7.13;;
53666;SDS011;39568;51.026;5.468;2023-05-29T02:44:20;16.85;;;7.68;;
53666;SDS011;39568;51.026;5.468;2023-05-29T02:46:47;19.85;;;6.35;;
53666;SDS011;39568;51.026;5.468;2023-05-29T02:49:15;18.85;;;6.20;;
53666;SDS011;39568;51.026;5.468;2023-05-29T02:51:42;18.92;;;6.28;;
53666;SDS011;39568;51.026;5.468;2023-05-29T02:54:12;13.55;;;6.03;;
53666;SDS011;39568;51.026;5.468;2023-05-29T02:56:42;22.50;;;7.72;;
53666;SDS011;39568;51.026;5.468;2023-05-29T02:59:09;22.95;;;5.90;;
53666;SDS011;39568;51.026;5.468;2023-05-29T03:01:36;27.63;;;6.35;;
53666;SDS011;39568;51.026;5.468;2023-05-29T03:04:13;22.02;;;6.30;;
53666;SDS011;39568;51.026;5.468;2023-05-29T03:06:39;23.05;;;5.43;;
53666;SDS011;39568;51.026;5.468;2023-05-29T03:09:06;23.13;;;5.32;;
53666;SDS011;39568;51.026;5.468;2023-05-29T03:11:38;17.58;;;5.38;;
53666;SDS011;39568;51.026;5.468;2023-05-29T03:14:09;15.77;;;5.57;;
53666;SDS011;39568;51.026;5.468;2023-05-29T03:16:38;20.08;;;6.28;;
53666;SDS011;39568;51.026;5.468;2023-05-29T03:19:05;22.60;;;6.53;;
53666;SDS011;39568;51.026;5.468;2023-05-29T03:21:33;21.40;;;5.45;;
53666;SDS011;39568;51.026;5.468;2023-05-29T03:24:01;26.90;;;6.13;;
53666;SDS011;39568;51.026;5.468;2023-05-29T03:26:28;14.52;;;5.32;;
53666;SDS011;39568;51.026;5.468;2023-05-29T03:28:59;20.90;;;5.80;;
53666;SDS011;39568;51.026;5.468;2023-05-29T03:31:27;24.35;;;6.85;;
53666;SDS011;39568;51.026;5.468;2023-05-29T03:33:54;19.10;;;5.57;;
53666;SDS011;39568;51.026;5.468;2023-05-29T03:36:24;20.10;;;4.78;;
53666;SDS011;39568;51.026;5.468;2023-05-29T03:38:51;16.40;;;5.03;;
53666;SDS011;39568;51.026;5.468;2023-05-29T03:41:18;21.25;;;4.75;;
53666;SDS011;39568;51.026;5.468;2023-05-29T03:43:45;27.10;;;5.18;;
53666;SDS011;39568;51.026;5.468;2023-05-29T03:46:13;28.02;;;4.93;;
53666;SDS011;39568;51.026;5.468;2023-05-29T03:48:40;17.50;;;4.20;;
53666;SDS011;39568;51.026;5.468;2023-05-29T03:51:07;23.58;;;5.30;;
53666;SDS011;39568;51.026;5.468;2023-05-29T03:53:35;23.80;;;4.72;;
53666;SDS011;39568;51.026;5.468;2023-05-29T03:56:02;19.35;;;5.50;;
53666;SDS011;39568;51.026;5.468;2023-05-29T03:58:29;18.77;;;4.45;;
53666;SDS011;39568;51.026;5.468;2023-05-29T04:00:55;15.90;;;4.88;;
53666;SDS011;39568;51.026;5.468;2023-05-29T04:03:26;20.52;;;4.43;;
53666;SDS011;39568;51.026;5.468;2023-05-29T04:05:54;16.85;;;4.13;;
53666;SDS011;39568;51.026;5.468;2023-05-29T04:08:20;23.50;;;4.97;;
53666;SDS011;39568;51.026;5.468;2023-05-29T04:10:49;24.92;;;5.57;;
53666;SDS011;39568;51.026;5.468;2023-05-29T04:13:19;19.65;;;4.63;;
53666;SDS011;39568;51.026;5.468;2023-05-29T04:15:46;32.30;;;6.60;;
53666;SDS011;39568;51.026;5.468;2023-05-29T04:18:19;26.75;;;4.47;;
53666;SDS011;39568;51.026;5.468;2023-05-29T04:20:49;18.38;;;5.03;;
53666;SDS011;39568;51.026;5.468;2023-05-29T04:23:18;22.77;;;5.35;;
53666;SDS011;39568;51.026;5.468;2023-05-29T04:25:45;26.05;;;5.22;;
53666;SDS011;39568;51.026;5.468;2023-05-29T04:28:13;26.30;;;5.35;;
53666;SDS011;39568;51.026;5.468;2023-05-29T04:30:46;22.10;;;4.10;;
53666;SDS011;39568;51.026;5.468;2023-05-29T04:33:14;29.13;;;5.18;;
53666;SDS011;39568;51.026;5.468;2023-05-29T04:35:49;32.80;;;5.40;;
53666;SDS011;39568;51.026;5.468;2023-05-29T04:38:20;27.60;;;5.53;;
53666;SDS011;39568;51.026;5.468;2023-05-29T04:40:50;22.27;;;4.70;;
53666;SDS011;39568;51.026;5.468;2023-05-29T04:43:17;28.75;;;6.32;;
53666;SDS011;39568;51.026;5.468;2023-05-29T04:45:44;32.85;;;4.72;;
53666;SDS011;39568;51.026;5.468;2023-05-29T04:48:10;20.40;;;3.90;;
53666;SDS011;39568;51.026;5.468;2023-05-29T04:50:37;28.20;;;5.05;;
53666;SDS011;39568;51.026;5.468;2023-05-29T04:53:05;25.30;;;5.50;;
53666;SDS011;39568;51.026;5.468;2023-05-29T04:55:33;24.50;;;4.30;;
53666;SDS011;39568;51.026;5.468;2023-05-29T04:58:00;25.45;;;5.28;;
53666;SDS011;39568;51.026;5.468;2023-05-29T05:00:27;26.63;;;5.38;;
53666;SDS011;39568;51.026;5.468;2023-05-29T05:02:55;12.05;;;3.70;;
53666;SDS011;39568;51.026;5.468;2023-05-29T05:05:21;24.25;;;3.63;;
53666;SDS011;39568;51.026;5.468;2023-05-29T05:07:48;25.50;;;5.38;;
53666;SDS011;39568;51.026;5.468;2023-05-29T05:10:18;20.88;;;4.97;;
53666;SDS011;39568;51.026;5.468;2023-05-29T05:12:44;26.27;;;4.95;;
53666;SDS011;39568;51.026;5.468;2023-05-29T05:15:12;19.30;;;4.45;;
53666;SDS011;39568;51.026;5.468;2023-05-29T05:17:38;20.95;;;4.95;;
53666;SDS011;39568;51.026;5.468;2023-05-29T05:20:05;30.10;;;5.22;;
53666;SDS011;39568;51.026;5.468;2023-05-29T05:22:33;28.20;;;5.70;;
53666;SDS011;39568;51.026;5.468;2023-05-29T05:25:01;18.40;;;3.92;;
53666;SDS011;39568;51.026;5.468;2023-05-29T05:27:31;25.02;;;4.00;;
53666;SDS011;39568;51.026;5.468;2023-05-29T05:29:57;20.45;;;4.57;;
53666;SDS011;39568;51.026;5.468;2023-05-29T05:32:25;27.73;;;5.28;;
53666;SDS011;39568;51.026;5.468;2023-05-29T05:34:52;39.75;;;4.93;;
53666;SDS011;39568;51.026;5.468;2023-05-29T05:37:19;22.10;;;5.43;;
53666;SDS011;39568;51.026;5.468;2023-05-29T05:39:48;26.17;;;4.30;;
53666;SDS011;39568;51.026;5.468;2023-05-29T05:42:15;18.42;;;4.32;;
53666;SDS011;39568;51.026;5.468;2023-05-29T05:44:44;27.40;;;4.50;;
53666;SDS011;39568;51.026;5.468;2023-05-29T05:47:11;27.85;;;5.00;;
53666;SDS011;39568;51.026;5.468;2023-05-29T05:49:38;20.77;;;4.28;;
53666;SDS011;39568;51.026;5.468;2023-05-29T05:52:05;21.10;;;4.00;;
53666;SDS011;39568;51.026;5.468;2023-05-29T05:54:32;16.45;;;4.40;;
53666;SDS011;39568;51.026;5.468;2023-05-29T05:57:06;20.85;;;4.13;;
53666;SDS011;39568;51.026;5.468;2023-05-29T05:59:33;18.65;;;4.47;;
53666;SDS011;39568;51.026;5.468;2023-05-29T06:02:02;16.80;;;3.50;;
53666;SDS011;39568;51.026;5.468;2023-05-29T06:04:30;12.98;;;3.58;;
53666;SDS011;39568;51.026;5.468;2023-05-29T06:06:56;19.02;;;4.35;;
53666;SDS011;39568;51.026;5.468;2023-05-29T06:09:23;14.15;;;3.65;;
53666;SDS011;39568;51.026;5.468;2023-05-29T06:11:50;24.02;;;4.80;;
53666;SDS011;39568;51.026;5.468;2023-05-29T06:14:17;22.20;;;4.95;;
53666;SDS011;39568;51.026;5.468;2023-05-29T06:16:44;29.02;;;5.15;;
53666;SDS011;39568;51.026;5.468;2023-05-29T06:19:13;20.02;;;3.88;;
53666;SDS011;39568;51.026;5.468;2023-05-29T06:21:41;35.58;;;4.07;;
53666;SDS011;39568;51.026;5.468;2023-05-29T06:24:08;13.93;;;3.22;;
53666;SDS011;39568;51.026;5.468;2023-05-29T06:26:35;26.05;;;5.13;;
53666;SDS011;39568;51.026;5.468;2023-05-29T06:29:02;21.00;;;3.50;;
53666;SDS011;39568;51.026;5.468;2023-05-29T06:31:30;18.35;;;4.38;;
53666;SDS011;39568;51.026;5.468;2023-05-29T06:33:58;18.33;;;4.05;;
53666;SDS011;39568;51.026;5.468;2023-05-29T06:36:26;10.50;;;3.53;;
53666;SDS011;39568;51.026;5.468;2023-05-29T06:38:56;15.05;;;3.40;;
53666;SDS011;39568;51.026;5.468;2023-05-29T06:41:23;24.77;;;4.00;;
53666;SDS011;39568;51.026;5.468;2023-05-29T06:43:59;23.30;;;4.68;;
53666;SDS011;39568;51.026;5.468;2023-05-29T06:46:26;22.67;;;4.18;;
53666;SDS011;39568;51.026;5.468;2023-05-29T06:48:54;21.85;;;4.38;;
53666;SDS011;39568;51.026;5.468;2023-05-29T06:51:21;14.88;;;3.42;;
53666;SDS011;39568;51.026;5.468;2023-05-29T06:54:01;20.10;;;4.25;;
53666;SDS011;39568;51.026;5.468;2023-05-29T06:56:28;19.23;;;3.35;;
53666;SDS011;39568;51.026;5.468;2023-05-29T06:58:55;21.25;;;4.10;;
53666;SDS011;39568;51.026;5.468;2023-05-29T07:01:22;17.88;;;3.53;;
53666;SDS011;39568;51.026;5.468;2023-05-29T07:03:51;13.23;;;3.22;;
53666;SDS011;39568;51.026;5.468;2023-05-29T07:06:18;26.60;;;3.75;;
53666;SDS011;39568;51.026;5.468;2023-05-29T07:08:46;22.48;;;4.25;;
53666;SDS011;39568;51.026;5.468;2023-05-29T07:11:13;21.90;;;4.75;;
53666;SDS011;39568;51.026;5.468;2023-05-29T07:13:40;13.40;;;3.75;;
53666;SDS011;39568;51.026;5.468;2023-05-29T07:16:07;18.52;;;3.35;;
53666;SDS011;39568;51.026;5.468;2023-05-29T07:18:33;15.85;;;4.78;;
53666;SDS011;39568;51.026;5.468;2023-05-29T07:21:00;15.20;;;5.35;;
53666;SDS011;39568;51.026;5.468;2023-05-29T07:23:27;21.20;;;3.40;;
53666;SDS011;39568;51.026;5.468;2023-05-29T07:25:55;15.55;;;2.92;;
53666;SDS011;39568;51.026;5.468;2023-05-29T07:28:22;16.70;;;3.45;;
53666;SDS011;39568;51.026;5.468;2023-05-29T07:30:48;23.05;;;3.60;;
53666;SDS011;39568;51.026;5.468;2023-05-29T07:33:15;17.90;;;4.15;;
53666;SDS011;39568;51.026;5.468;2023-05-29T07:35:42;20.73;;;3.33;;
53666;SDS011;39568;51.026;5.468;2023-05-29T07:38:08;16.38;;;3.63;;
53666;SDS011;39568;51.026;5.468;2023-05-29T07:40:35;10.57;;;2.65;;
53666;SDS011;39568;51.026;5.468;2023-05-29T07:43:03;16.08;;;3.15;;
53666;SDS011;39568;51.026;5.468;2023-05-29T07:45:30;18.63;;;4.00;;
53666;SDS011;39568;51.026;5.468;2023-05-29T07:47:56;18.83;;;4.18;;
53666;SDS011;39568;51.026;5.468;2023-05-29T07:50:23;11.43;;;3.10;;
53666;SDS011;39568;51.026;5.468;2023-05-29T07:52:50;10.48;;;3.53;;
53666;SDS011;39568;51.026;5.468;2023-05-29T07:55:17;13.15;;;3.00;;
53666;SDS011;39568;51.026;5.468;2023-05-29T07:57:44;20.42;;;3.55;;
53666;SDS011;39568;51.026;5.468;2023-05-29T08:00:13;13.73;;;3.33;;
53666;SDS011;39568;51.026;5.468;2023-05-29T08:02:40;10.20;;;2.85;;
53666;SDS011;39568;51.026;5.468;2023-05-29T08:05:08;15.40;;;3.28;;
53666;SDS011;39568;51.026;5.468;2023-05-29T08:07:36;12.25;;;3.28;;
53666;SDS011;39568;51.026;5.468;2023-05-29T08:10:03;11.82;;;2.95;;
53666;SDS011;39568;51.026;5.468;2023-05-29T08:12:31;21.13;;;4.15;;
53666;SDS011;39568;51.026;5.468;2023-05-29T08:15:00;21.45;;;4.43;;
53666;SDS011;39568;51.026;5.468;2023-05-29T08:17:28;19.02;;;3.90;;
53666;SDS011;39568;51.026;5.468;2023-05-29T08:19:54;16.48;;;3.33;;
53666;SDS011;39568;51.026;5.468;2023-05-29T08:22:22;16.83;;;3.10;;
53666;SDS011;39568;51.026;5.468;2023-05-29T08:24:54;12.18;;;3.47;;
53666;SDS011;39568;51.026;5.468;2023-05-29T08:27:20;20.95;;;4.53;;
53666;SDS011;39568;51.026;5.468;2023-05-29T08:29:47;13.52;;;3.30;;
53666;SDS011;39568;51.026;5.468;2023-05-29T08:32:14;13.95;;;3.88;;
53666;SDS011;39568;51.026;5.468;2023-05-29T08:34:42;14.50;;;3.30;;
53666;SDS011;39568;51.026;5.468;2023-05-29T08:37:10;20.02;;;4.15;;
53666;SDS011;39568;51.026;5.468;2023-05-29T08:39:37;24.38;;;4.80;;
53666;SDS011;39568;51.026;5.468;2023-05-29T08:42:04;17.40;;;3.47;;
53666;SDS011;39568;51.026;5.468;2023-05-29T08:44:33;12.60;;;3.72;;
53666;SDS011;39568;51.026;5.468;2023-05-29T08:47:02;13.82;;;3.97;;
53666;SDS011;39568;51.026;5.468;2023-05-29T08:49:31;14.38;;;3.92;;
53666;SDS011;39568;51.026;5.468;2023-05-29T08:52:11;17.42;;;3.17;;
53666;SDS011;39568;51.026;5.468;2023-05-29T08:54:41;20.33;;;3.20;;
53666;SDS011;39568;51.026;5.468;2023-05-29T08:57:09;17.02;;;4.03;;
53666;SDS011;39568;51.026;5.468;2023-05-29T08:59:37;17.17;;;2.80;;
53666;SDS011;39568;51.026;5.468;2023-05-29T09:02:07;13.93;;;3.38;;
53666;SDS011;39568;51.026;5.468;2023-05-29T09:04:34;18.13;;;3.35;;
53666;SDS011;39568;51.026;5.468;2023-05-29T09:07:00;31.55;;;3.88;;
53666;SDS011;39568;51.026;5.468;2023-05-29T09:09:29;13.40;;;3.30;;
53666;SDS011;39568;51.026;5.468;2023-05-29T09:11:57;18.08;;;3.55;;
53666;SDS011;39568;51.026;5.468;2023-05-29T09:14:34;24.95;;;3.30;;
53666;SDS011;39568;51.026;5.468;2023-05-29T09:17:02;21.25;;;3.72;;
53666;SDS011;39568;51.026;5.468;2023-05-29T09:19:30;17.85;;;2.92;;
53666;SDS011;39568;51.026;5.468;2023-05-29T09:22:00;14.73;;;2.80;;
53666;SDS011;39568;51.026;5.468;2023-05-29T09:24:30;15.65;;;3.60;;
53666;SDS011;39568;51.026;5.468;2023-05-29T09:26:58;19.77;;;3.50;;
53666;SDS011;39568;51.026;5.468;2023-05-29T09:29:25;6.90;;;2.60;;
53666;SDS011;39568;51.026;5.468;2023-05-29T09:31:52;11.75;;;2.80;;
53666;SDS011;39568;51.026;5.468;2023-05-29T09:34:19;13.35;;;4.25;;
53666;SDS011;39568;51.026;5.468;2023-05-29T09:36:49;24.23;;;3.78;;
53666;SDS011;39568;51.026;5.468;2023-05-29T09:39:16;15.57;;;3.65;;
53666;SDS011;39568;51.026;5.468;2023-05-29T09:41:45;13.65;;;3.55;;
53666;SDS011;39568;51.026;5.468;2023-05-29T09:44:13;15.38;;;3.25;;
53666;SDS011;39568;51.026;5.468;2023-05-29T09:46:40;12.88;;;4.07;;
53666;SDS011;39568;51.026;5.468;2023-05-29T09:49:11;19.25;;;4.38;;
53666;SDS011;39568;51.026;5.468;2023-05-29T09:51:38;15.07;;;2.78;;
53666;SDS011;39568;51.026;5.468;2023-05-29T09:54:14;9.30;;;3.33;;
53666;SDS011;39568;51.026;5.468;2023-05-29T09:56:41;15.88;;;3.58;;
53666;SDS011;39568;51.026;5.468;2023-05-29T09:59:12;10.10;;;3.10;;
53666;SDS011;39568;51.026;5.468;2023-05-29T10:01:40;9.70;;;3.30;;
53666;SDS011;39568;51.026;5.468;2023-05-29T10:04:09;16.50;;;3.50;;
53666;SDS011;39568;51.026;5.468;2023-05-29T10:06:36;9.07;;;3.20;;
53666;SDS011;39568;51.026;5.468;2023-05-29T10:09:04;18.52;;;3.83;;
53666;SDS011;39568;51.026;5.468;2023-05-29T10:11:33;10.30;;;2.95;;
53666;SDS011;39568;51.026;5.468;2023-05-29T10:14:01;15.48;;;3.53;;
53666;SDS011;39568;51.026;5.468;2023-05-29T10:16:31;10.13;;;3.00;;
53666;SDS011;39568;51.026;5.468;2023-05-29T10:19:03;7.57;;;2.70;;
53666;SDS011;39568;51.026;5.468;2023-05-29T10:21:32;9.82;;;2.88;;
53666;SDS011;39568;51.026;5.468;2023-05-29T10:26:33;13.73;;;3.63;;
53666;SDS011;39568;51.026;5.468;2023-05-29T10:29:03;7.70;;;2.40;;
53666;SDS011;39568;51.026;5.468;2023-05-29T10:31:38;10.05;;;3.15;;
53666;SDS011;39568;51.026;5.468;2023-05-29T10:34:14;8.35;;;3.10;;
53666;SDS011;39568;51.026;5.468;2023-05-29T10:36:52;7.07;;;3.22;;
53666;SDS011;39568;51.026;5.468;2023-05-29T10:39:25;5.93;;;2.38;;
53666;SDS011;39568;51.026;5.468;2023-05-29T10:41:52;12.43;;;2.78;;
53666;SDS011;39568;51.026;5.468;2023-05-29T10:44:37;12.15;;;3.28;;
53666;SDS011;39568;51.026;5.468;2023-05-29T10:47:06;11.65;;;2.90;;
53666;SDS011;39568;51.026;5.468;2023-05-29T10:52:03;9.57;;;2.20;;
53666;SDS011;39568;51.026;5.468;2023-05-29T10:54:39;10.38;;;2.65;;
53666;SDS011;39568;51.026;5.468;2023-05-29T10:57:15;10.57;;;2.58;;
53666;SDS011;39568;51.026;5.468;2023-05-29T10:59:42;10.75;;;3.50;;
53666;SDS011;39568;51.026;5.468;2023-05-29T11:02:12;9.70;;;2.88;;
53666;SDS011;39568;51.026;5.468;2023-05-29T11:04:44;6.18;;;2.35;;
53666;SDS011;39568;51.026;5.468;2023-05-29T11:10:13;14.10;;;2.85;;
53666;SDS011;39568;51.026;5.468;2023-05-29T11:12:58;15.70;;;3.20;;
53666;SDS011;39568;51.026;5.468;2023-05-29T11:15:25;7.18;;;2.72;;
53666;SDS011;39568;51.026;5.468;2023-05-29T11:17:53;7.63;;;2.95;;
53666;SDS011;39568;51.026;5.468;2023-05-29T11:20:35;9.40;;;2.78;;
53666;SDS011;39568;51.026;5.468;2023-05-29T11:23:03;9.07;;;2.50;;
53666;SDS011;39568;51.026;5.468;2023-05-29T11:25:34;9.05;;;3.13;;
53666;SDS011;39568;51.026;5.468;2023-05-29T11:28:03;15.50;;;3.67;;
53666;SDS011;39568;51.026;5.468;2023-05-29T11:30:40;9.77;;;3.20;;
53666;SDS011;39568;51.026;5.468;2023-05-29T11:33:10;9.68;;;2.97;;
53666;SDS011;39568;51.026;5.468;2023-05-29T11:35:46;8.27;;;2.40;;
53666;SDS011;39568;51.026;5.468;2023-05-29T11:38:16;9.53;;;2.83;;
53666;SDS011;39568;51.026;5.468;2023-05-29T11:40:42;12.18;;;3.22;;
53666;SDS011;39568;51.026;5.468;2023-05-29T11:43:11;9.35;;;2.53;;
53666;SDS011;39568;51.026;5.468;2023-05-29T11:45:38;14.70;;;3.05;;
53666;SDS011;39568;51.026;5.468;2023-05-29T11:48:05;7.40;;;2.67;;
53666;SDS011;39568;51.026;5.468;2023-05-29T11:50:33;8.63;;;3.10;;
53666;SDS011;39568;51.026;5.468;2023-05-29T11:53:00;8.45;;;2.40;;
53666;SDS011;39568;51.026;5.468;2023-05-29T11:55:27;11.93;;;2.33;;
53666;SDS011;39568;51.026;5.468;2023-05-29T11:57:55;11.95;;;2.97;;
53666;SDS011;39568;51.026;5.468;2023-05-29T12:00:23;4.27;;;1.80;;
53666;SDS011;39568;51.026;5.468;2023-05-29T12:02:51;6.75;;;2.72;;
53666;SDS011;39568;51.026;5.468;2023-05-29T12:05:18;8.65;;;2.70;;
53666;SDS011;39568;51.026;5.468;2023-05-29T12:07:49;11.50;;;3.35;;
53666;SDS011;39568;51.026;5.468;2023-05-29T12:10:17;10.48;;;2.55;;
53666;SDS011;39568;51.026;5.468;2023-05-29T12:12:49;15.20;;;3.00;;
53666;SDS011;39568;51.026;5.468;2023-05-29T12:15:17;7.38;;;3.22;;
53666;SDS011;39568;51.026;5.468;2023-05-29T12:17:44;10.32;;;3.08;;
53666;SDS011;39568;51.026;5.468;2023-05-29T12:20:12;7.07;;;2.70;;
53666;SDS011;39568;51.026;5.468;2023-05-29T12:22:41;16.02;;;2.88;;
53666;SDS011;39568;51.026;5.468;2023-05-29T12:25:10;14.05;;;3.78;;
53666;SDS011;39568;51.026;5.468;2023-05-29T12:27:38;11.45;;;3.22;;
53666;SDS011;39568;51.026;5.468;2023-05-29T12:30:09;8.07;;;3.00;;
53666;SDS011;39568;51.026;5.468;2023-05-29T12:32:37;12.15;;;2.88;;
53666;SDS011;39568;51.026;5.468;2023-05-29T12:35:12;7.60;;;2.33;;
53666;SDS011;39568;51.026;5.468;2023-05-29T12:37:42;8.48;;;2.28;;
53666;SDS011;39568;51.026;5.468;2023-05-29T12:40:13;11.00;;;1.98;;
53666;SDS011;39568;51.026;5.468;2023-05-29T12:42:41;9.05;;;2.35;;
53666;SDS011;39568;51.026;5.468;2023-05-29T12:45:08;7.95;;;2.83;;
53666;SDS011;39568;51.026;5.468;2023-05-29T12:47:35;6.30;;;2.45;;
53666;SDS011;39568;51.026;5.468;2023-05-29T12:50:18;9.02;;;2.90;;
53666;SDS011;39568;51.026;5.468;2023-05-29T12:52:46;4.53;;;2.15;;
53666;SDS011;39568;51.026;5.468;2023-05-29T12:55:20;9.70;;;2.90;;
53666;SDS011;39568;51.026;5.468;2023-05-29T12:57:46;7.05;;;2.28;;
53666;SDS011;39568;51.026;5.468;2023-05-29T13:00:13;6.25;;;2.80;;
53666;SDS011;39568;51.026;5.468;2023-05-29T13:02:41;9.20;;;2.53;;
53666;SDS011;39568;51.026;5.468;2023-05-29T13:05:07;13.43;;;2.58;;
53666;SDS011;39568;51.026;5.468;2023-05-29T13:07:34;5.70;;;2.63;;
53666;SDS011;39568;51.026;5.468;2023-05-29T13:10:01;12.95;;;2.85;;
53666;SDS011;39568;51.026;5.468;2023-05-29T13:12:29;9.07;;;2.63;;
53666;SDS011;39568;51.026;5.468;2023-05-29T13:14:56;8.52;;;2.25;;
53666;SDS011;39568;51.026;5.468;2023-05-29T13:17:22;13.40;;;2.53;;
53666;SDS011;39568;51.026;5.468;2023-05-29T13:19:49;11.75;;;2.78;;
53666;SDS011;39568;51.026;5.468;2023-05-29T13:22:16;9.27;;;2.80;;
53666;SDS011;39568;51.026;5.468;2023-05-29T13:24:42;7.30;;;2.55;;
53666;SDS011;39568;51.026;5.468;2023-05-29T13:27:09;10.00;;;2.55;;
53666;SDS011;39568;51.026;5.468;2023-05-29T13:29:40;11.82;;;2.80;;
53666;SDS011;39568;51.026;5.468;2023-05-29T13:32:06;6.82;;;2.17;;
53666;SDS011;39568;51.026;5.468;2023-05-29T13:34:33;5.05;;;2.70;;
53666;SDS011;39568;51.026;5.468;2023-05-29T13:37:00;9.32;;;2.58;;
53666;SDS011;39568;51.026;5.468;2023-05-29T13:39:27;12.57;;;3.60;;
53666;SDS011;39568;51.026;5.468;2023-05-29T13:41:54;11.82;;;2.83;;
53666;SDS011;39568;51.026;5.468;2023-05-29T13:44:21;15.80;;;2.40;;
53666;SDS011;39568;51.026;5.468;2023-05-29T13:46:49;13.77;;;2.20;;
53666;SDS011;39568;51.026;5.468;2023-05-29T13:49:16;17.73;;;2.70;;
53666;SDS011;39568;51.026;5.468;2023-05-29T13:51:42;4.55;;;2.63;;
53666;SDS011;39568;51.026;5.468;2023-05-29T13:54:11;9.93;;;2.90;;
53666;SDS011;39568;51.026;5.468;2023-05-29T13:56:38;7.15;;;2.88;;
53666;SDS011;39568;51.026;5.468;2023-05-29T13:59:05;13.40;;;3.17;;
53666;SDS011;39568;51.026;5.468;2023-05-29T14:01:32;11.23;;;2.75;;
53666;SDS011;39568;51.026;5.468;2023-05-29T14:04:00;12.43;;;3.30;;
53666;SDS011;39568;51.026;5.468;2023-05-29T14:06:27;5.38;;;2.88;;
53666;SDS011;39568;51.026;5.468;2023-05-29T14:08:53;24.10;;;3.67;;
53666;SDS011;39568;51.026;5.468;2023-05-29T14:11:21;10.13;;;2.42;;
53666;SDS011;39568;51.026;5.468;2023-05-29T14:13:47;10.73;;;3.17;;
53666;SDS011;39568;51.026;5.468;2023-05-29T14:16:14;9.65;;;3.17;;
53666;SDS011;39568;51.026;5.468;2023-05-29T14:18:41;7.32;;;2.78;;
53666;SDS011;39568;51.026;5.468;2023-05-29T14:21:09;11.32;;;2.92;;
53666;SDS011;39568;51.026;5.468;2023-05-29T14:23:37;11.82;;;2.60;;
53666;SDS011;39568;51.026;5.468;2023-05-29T14:26:04;7.75;;;2.50;;
53666;SDS011;39568;51.026;5.468;2023-05-29T14:28:32;18.83;;;3.83;;
53666;SDS011;39568;51.026;5.468;2023-05-29T14:30:58;8.18;;;2.35;;
53666;SDS011;39568;51.026;5.468;2023-05-29T14:33:25;13.38;;;3.15;;
53666;SDS011;39568;51.026;5.468;2023-05-29T14:35:52;14.57;;;3.90;;
53666;SDS011;39568;51.026;5.468;2023-05-29T14:38:20;11.20;;;2.60;;
53666;SDS011;39568;51.026;5.468;2023-05-29T14:40:46;11.02;;;3.00;;
53666;SDS011;39568;51.026;5.468;2023-05-29T14:43:13;9.73;;;2.33;;
53666;SDS011;39568;51.026;5.468;2023-05-29T14:45:40;8.63;;;2.35;;
53666;SDS011;39568;51.026;5.468;2023-05-29T14:48:07;10.00;;;2.55;;
53666;SDS011;39568;51.026;5.468;2023-05-29T14:50:33;25.92;;;3.40;;